MET5368 - Boston to Charlottesville

Embraer ERJ-170LR
955AG
0 hrs 45 mins
425 nm
Scheduled - Daily

Bid/PiRep Status

Bid was submitted on January 6th, 2017 10:26 UTC.
PiRep # 74630: Approved by Sean Doyle on January 7th, 2017 23:41 UTC

Departure

Departing from
Boston (BOS)
Departure gate
Scheduled Departure
GMT 1700
Local 1300

Arrival

Arriving at
Charlottesville (CHO)
Arrival gate
Ramp
Scheduled Arrival
GMT 1745
Local 1345
METAR KCHO 200653Z AUTO 17006KT 10SM CLR 03/M13 A3000 RMK AO2 SLP159 T00331128
TAF KCHO 200533Z 2006/2106 21006KT P6SM FEW200 FEW250 FM210000 25006KT P6SM FEW150 FEW250

Route Map

Planning Resources

TERPZ3 LDN GVE
KBWI BAL OTT BOOYA GVE KCHO
TERPZ CSN GVE
PUT RBV OTT BRV GVE KCHO
Route:
OFP Layout:
Units:
Detailed Navlog:
ETOPS Planning:
Plan Stepclimbs:
Runway Analysis:
Include NOTAMS:
FIR NOTAMS:
Flight Maps:

Popularity

Hub Current Bids PiReps this month Total PiReps
KLAX 0 0 1
KBOS 0 0 1
KDFW 0 0 0